sensor_id;sensor_type;location;lat;lon;timestamp;temperature;humidity
53880;DHT22;39791;53.184;5.486;2023-07-29T00:01:35;20.90;99.90
53880;DHT22;39791;53.184;5.486;2023-07-29T00:04:01;20.00;99.90
53880;DHT22;39791;53.184;5.486;2023-07-29T00:06:27;21.00;99.90
53880;DHT22;39791;53.184;5.486;2023-07-29T00:08:53;20.90;99.90
53880;DHT22;39791;53.184;5.486;2023-07-29T00:11:18;19.90;99.90
53880;DHT22;39791;53.184;5.486;2023-07-29T00:13:44;20.60;99.90
53880;DHT22;39791;53.184;5.486;2023-07-29T00:16:09;20.30;99.90
53880;DHT22;39791;53.184;5.486;2023-07-29T00:18:35;20.30;99.90
53880;DHT22;39791;53.184;5.486;2023-07-29T00:21:01;20.00;99.90
53880;DHT22;39791;53.184;5.486;2023-07-29T00:23:26;20.70;99.90
53880;DHT22;39791;53.184;5.486;2023-07-29T00:25:52;20.80;99.90
53880;DHT22;39791;53.184;5.486;2023-07-29T00:28:17;20.90;99.90
53880;DHT22;39791;53.184;5.486;2023-07-29T00:30:43;20.40;99.90
53880;DHT22;39791;53.184;5.486;2023-07-29T00:33:08;20.60;99.90
53880;DHT22;39791;53.184;5.486;2023-07-29T00:35:35;20.60;99.90
53880;DHT22;39791;53.184;5.486;2023-07-29T00:38:00;20.40;99.90
53880;DHT22;39791;53.184;5.486;2023-07-29T00:40:28;19.90;99.90
53880;DHT22;39791;53.184;5.486;2023-07-29T00:42:54;20.90;99.90
53880;DHT22;39791;53.184;5.486;2023-07-29T00:45:19;20.40;99.90
53880;DHT22;39791;53.184;5.486;2023-07-29T00:47:45;19.80;99.90
53880;DHT22;39791;53.184;5.486;2023-07-29T00:50:12;19.70;99.90
53880;DHT22;39791;53.184;5.486;2023-07-29T00:52:38;20.70;99.90
53880;DHT22;39791;53.184;5.486;2023-07-29T00:55:05;19.70;99.90
53880;DHT22;39791;53.184;5.486;2023-07-29T00:57:32;19.70;99.90
53880;DHT22;39791;53.184;5.486;2023-07-29T00:59:59;20.90;99.90
53880;DHT22;39791;53.184;5.486;2023-07-29T01:02:24;19.80;99.90
53880;DHT22;39791;53.184;5.486;2023-07-29T01:04:56;20.70;99.90
53880;DHT22;39791;53.184;5.486;2023-07-29T01:08:21;20.70;99.90
53880;DHT22;39791;53.184;5.486;2023-07-29T01:11:01;20.80;99.90
53880;DHT22;39791;53.184;5.486;2023-07-29T01:13:37;22.00;99.90
53880;DHT22;39791;53.184;5.486;2023-07-29T01:16:39;21.10;99.90
53880;DHT22;39791;53.184;5.486;2023-07-29T01:19:06;20.80;99.90
53880;DHT22;39791;53.184;5.486;2023-07-29T01:21:35;20.30;99.90
53880;DHT22;39791;53.184;5.486;2023-07-29T01:24:01;20.00;99.90
53880;DHT22;39791;53.184;5.486;2023-07-29T01:26:27;21.10;99.90
53880;DHT22;39791;53.184;5.486;2023-07-29T01:28:56;21.90;99.90
53880;DHT22;39791;53.184;5.486;2023-07-29T01:31:34;19.90;99.90
53880;DHT22;39791;53.184;5.486;2023-07-29T01:34:10;19.90;99.90
53880;DHT22;39791;53.184;5.486;2023-07-29T01:36:41;20.20;99.90
53880;DHT22;39791;53.184;5.486;2023-07-29T01:39:07;21.20;99.90
53880;DHT22;39791;53.184;5.486;2023-07-29T01:41:34;21.20;99.90
53880;DHT22;39791;53.184;5.486;2023-07-29T01:44:01;21.90;99.90
53880;DHT22;39791;53.184;5.486;2023-07-29T01:46:27;22.40;99.90
53880;DHT22;39791;53.184;5.486;2023-07-29T01:48:52;20.00;99.90
53880;DHT22;39791;53.184;5.486;2023-07-29T01:51:18;21.20;99.90
53880;DHT22;39791;53.184;5.486;2023-07-29T01:53:44;20.10;99.90
53880;DHT22;39791;53.184;5.486;2023-07-29T01:56:09;19.90;99.90
53880;DHT22;39791;53.184;5.486;2023-07-29T01:58:35;20.20;99.90
53880;DHT22;39791;53.184;5.486;2023-07-29T02:01:00;21.20;99.90
53880;DHT22;39791;53.184;5.486;2023-07-29T02:03:26;20.30;99.90
53880;DHT22;39791;53.184;5.486;2023-07-29T02:05:52;21.10;99.90
53880;DHT22;39791;53.184;5.486;2023-07-29T02:08:17;21.40;99.90
53880;DHT22;39791;53.184;5.486;2023-07-29T02:10:43;21.00;99.90
53880;DHT22;39791;53.184;5.486;2023-07-29T02:13:11;21.40;99.90
53880;DHT22;39791;53.184;5.486;2023-07-29T02:15:36;21.40;99.90
53880;DHT22;39791;53.184;5.486;2023-07-29T02:18:02;21.10;99.90
53880;DHT22;39791;53.184;5.486;2023-07-29T02:20:29;20.00;99.90
53880;DHT22;39791;53.184;5.486;2023-07-29T02:22:54;21.30;99.90
53880;DHT22;39791;53.184;5.486;2023-07-29T02:25:20;19.90;99.90
53880;DHT22;39791;53.184;5.486;2023-07-29T02:27:46;21.10;99.90
53880;DHT22;39791;53.184;5.486;2023-07-29T02:30:11;20.80;99.90
53880;DHT22;39791;53.184;5.486;2023-07-29T02:32:37;21.20;99.90
53880;DHT22;39791;53.184;5.486;2023-07-29T02:35:03;20.10;99.90
53880;DHT22;39791;53.184;5.486;2023-07-29T02:37:30;19.60;99.90
53880;DHT22;39791;53.184;5.486;2023-07-29T02:39:55;20.80;99.90
53880;DHT22;39791;53.184;5.486;2023-07-29T02:42:21;19.80;99.90
53880;DHT22;39791;53.184;5.486;2023-07-29T02:44:46;20.60;99.90
53880;DHT22;39791;53.184;5.486;2023-07-29T02:47:12;19.70;99.90
53880;DHT22;39791;53.184;5.486;2023-07-29T02:49:38;20.70;99.90
53880;DHT22;39791;53.184;5.486;2023-07-29T02:52:03;20.10;99.90
53880;DHT22;39791;53.184;5.486;2023-07-29T02:54:29;20.00;99.90
53880;DHT22;39791;53.184;5.486;2023-07-29T02:56:55;20.60;99.90
53880;DHT22;39791;53.184;5.486;2023-07-29T02:59:20;19.60;99.90
53880;DHT22;39791;53.184;5.486;2023-07-29T03:01:46;19.70;99.90
53880;DHT22;39791;53.184;5.486;2023-07-29T03:04:12;20.30;99.90
53880;DHT22;39791;53.184;5.486;2023-07-29T03:06:38;21.10;99.90
53880;DHT22;39791;53.184;5.486;2023-07-29T03:09:04;19.80;99.90
53880;DHT22;39791;53.184;5.486;2023-07-29T03:11:30;20.20;99.90
53880;DHT22;39791;53.184;5.486;2023-07-29T03:13:56;19.40;99.90
53880;DHT22;39791;53.184;5.486;2023-07-29T03:16:22;20.10;99.90
53880;DHT22;39791;53.184;5.486;2023-07-29T03:18:48;19.10;99.90
53880;DHT22;39791;53.184;5.486;2023-07-29T03:21:14;20.20;99.90
53880;DHT22;39791;53.184;5.486;2023-07-29T03:23:40;19.30;99.90
53880;DHT22;39791;53.184;5.486;2023-07-29T03:26:06;19.50;99.90
53880;DHT22;39791;53.184;5.486;2023-07-29T03:28:41;19.90;99.90
53880;DHT22;39791;53.184;5.486;2023-07-29T03:31:07;20.90;99.90
53880;DHT22;39791;53.184;5.486;2023-07-29T03:33:33;19.20;99.90
53880;DHT22;39791;53.184;5.486;2023-07-29T03:35:58;20.50;99.90
53880;DHT22;39791;53.184;5.486;2023-07-29T03:38:24;20.30;99.90
53880;DHT22;39791;53.184;5.486;2023-07-29T03:40:50;19.10;99.90
53880;DHT22;39791;53.184;5.486;2023-07-29T03:43:16;19.70;99.90
53880;DHT22;39791;53.184;5.486;2023-07-29T03:45:42;19.80;99.90
53880;DHT22;39791;53.184;5.486;2023-07-29T03:48:07;19.70;99.90
53880;DHT22;39791;53.184;5.486;2023-07-29T03:50:34;19.90;99.90
53880;DHT22;39791;53.184;5.486;2023-07-29T03:53:01;19.10;99.90
53880;DHT22;39791;53.184;5.486;2023-07-29T03:55:27;20.50;99.90
53880;DHT22;39791;53.184;5.486;2023-07-29T03:57:56;19.30;99.90
53880;DHT22;39791;53.184;5.486;2023-07-29T04:00:21;20.20;99.90
53880;DHT22;39791;53.184;5.486;2023-07-29T04:02:47;20.00;99.90
53880;DHT22;39791;53.184;5.486;2023-07-29T04:05:13;20.20;99.90
53880;DHT22;39791;53.184;5.486;2023-07-29T04:07:38;19.20;99.90
53880;DHT22;39791;53.184;5.486;2023-07-29T04:10:05;19.10;99.90
53880;DHT22;39791;53.184;5.486;2023-07-29T04:12:31;19.60;99.90
53880;DHT22;39791;53.184;5.486;2023-07-29T04:14:57;19.20;99.90
53880;DHT22;39791;53.184;5.486;2023-07-29T04:17:22;20.20;99.90
53880;DHT22;39791;53.184;5.486;2023-07-29T04:19:48;19.10;99.90
53880;DHT22;39791;53.184;5.486;2023-07-29T04:22:15;21.20;99.90
53880;DHT22;39791;53.184;5.486;2023-07-29T04:24:41;19.70;99.90
53880;DHT22;39791;53.184;5.486;2023-07-29T04:27:06;19.40;99.90
53880;DHT22;39791;53.184;5.486;2023-07-29T04:29:32;20.30;99.90
53880;DHT22;39791;53.184;5.486;2023-07-29T04:31:57;20.30;99.90
53880;DHT22;39791;53.184;5.486;2023-07-29T04:34:23;19.30;99.90
53880;DHT22;39791;53.184;5.486;2023-07-29T04:36:48;21.20;99.90
53880;DHT22;39791;53.184;5.486;2023-07-29T04:39:14;19.90;99.90
53880;DHT22;39791;53.184;5.486;2023-07-29T04:41:40;21.70;99.90
53880;DHT22;39791;53.184;5.486;2023-07-29T04:44:06;21.00;99.90
53880;DHT22;39791;53.184;5.486;2023-07-29T04:46:32;20.60;99.90
53880;DHT22;39791;53.184;5.486;2023-07-29T04:48:58;20.70;99.90
53880;DHT22;39791;53.184;5.486;2023-07-29T04:51:24;20.70;99.90
53880;DHT22;39791;53.184;5.486;2023-07-29T04:53:50;21.40;99.90
53880;DHT22;39791;53.184;5.486;2023-07-29T04:56:15;20.20;99.90
53880;DHT22;39791;53.184;5.486;2023-07-29T04:58:41;19.50;99.90
53880;DHT22;39791;53.184;5.486;2023-07-29T05:01:06;21.10;99.90
53880;DHT22;39791;53.184;5.486;2023-07-29T05:03:32;20.80;99.90
53880;DHT22;39791;53.184;5.486;2023-07-29T05:05:58;20.70;99.90
53880;DHT22;39791;53.184;5.486;2023-07-29T05:08:25;20.10;99.90
53880;DHT22;39791;53.184;5.486;2023-07-29T05:10:52;20.80;99.90
53880;DHT22;39791;53.184;5.486;2023-07-29T05:13:18;20.80;99.90
53880;DHT22;39791;53.184;5.486;2023-07-29T05:15:44;20.80;99.90
53880;DHT22;39791;53.184;5.486;2023-07-29T05:18:10;20.70;99.90
53880;DHT22;39791;53.184;5.486;2023-07-29T05:20:36;21.70;99.90
53880;DHT22;39791;53.184;5.486;2023-07-29T05:23:01;21.00;99.90
53880;DHT22;39791;53.184;5.486;2023-07-29T05:25:27;20.80;99.90
53880;DHT22;39791;53.184;5.486;2023-07-29T05:27:53;20.70;99.90
53880;DHT22;39791;53.184;5.486;2023-07-29T05:30:18;20.80;99.90
53880;DHT22;39791;53.184;5.486;2023-07-29T05:32:44;21.00;99.90
53880;DHT22;39791;53.184;5.486;2023-07-29T05:35:10;20.90;99.90
53880;DHT22;39791;53.184;5.486;2023-07-29T05:37:39;20.30;99.90
53880;DHT22;39791;53.184;5.486;2023-07-29T05:40:08;20.40;99.90
53880;DHT22;39791;53.184;5.486;2023-07-29T05:42:36;21.20;99.90
53880;DHT22;39791;53.184;5.486;2023-07-29T05:45:02;20.90;99.90
53880;DHT22;39791;53.184;5.486;2023-07-29T05:47:28;20.50;99.90
53880;DHT22;39791;53.184;5.486;2023-07-29T05:49:53;21.10;99.90
53880;DHT22;39791;53.184;5.486;2023-07-29T05:52:20;20.50;99.90
53880;DHT22;39791;53.184;5.486;2023-07-29T05:54:45;20.50;99.90
53880;DHT22;39791;53.184;5.486;2023-07-29T05:57:11;21.20;99.90
53880;DHT22;39791;53.184;5.486;2023-07-29T05:59:37;20.40;99.90
53880;DHT22;39791;53.184;5.486;2023-07-29T06:02:03;21.30;99.90
53880;DHT22;39791;53.184;5.486;2023-07-29T06:04:29;20.50;99.90
53880;DHT22;39791;53.184;5.486;2023-07-29T06:06:54;21.40;99.90
53880;DHT22;39791;53.184;5.486;2023-07-29T06:09:21;21.00;99.90
53880;DHT22;39791;53.184;5.486;2023-07-29T06:11:47;21.40;99.90
53880;DHT22;39791;53.184;5.486;2023-07-29T06:14:13;20.30;99.90
53880;DHT22;39791;53.184;5.486;2023-07-29T06:16:38;21.60;99.90
53880;DHT22;39791;53.184;5.486;2023-07-29T06:19:04;20.80;99.90
53880;DHT22;39791;53.184;5.486;2023-07-29T06:21:30;21.90;99.90
53880;DHT22;39791;53.184;5.486;2023-07-29T06:23:55;21.40;99.90
53880;DHT22;39791;53.184;5.486;2023-07-29T06:26:21;23.40;99.90
53880;DHT22;39791;53.184;5.486;2023-07-29T06:28:47;21.20;99.90
53880;DHT22;39791;53.184;5.486;2023-07-29T06:31:12;20.30;99.90
53880;DHT22;39791;53.184;5.486;2023-07-29T06:33:38;20.50;99.90
53880;DHT22;39791;53.184;5.486;2023-07-29T06:36:04;22.00;99.90
53880;DHT22;39791;53.184;5.486;2023-07-29T06:38:29;20.30;99.90
53880;DHT22;39791;53.184;5.486;2023-07-29T06:40:55;21.20;99.90
53880;DHT22;39791;53.184;5.486;2023-07-29T06:43:21;21.30;99.90
53880;DHT22;39791;53.184;5.486;2023-07-29T06:45:46;21.60;99.90
53880;DHT22;39791;53.184;5.486;2023-07-29T06:48:12;21.00;99.90
53880;DHT22;39791;53.184;5.486;2023-07-29T06:50:37;23.40;99.90
53880;DHT22;39791;53.184;5.486;2023-07-29T06:53:03;20.40;99.90
53880;DHT22;39791;53.184;5.486;2023-07-29T06:55:29;20.90;99.90
53880;DHT22;39791;53.184;5.486;2023-07-29T06:57:55;21.30;99.90
53880;DHT22;39791;53.184;5.486;2023-07-29T07:00:20;20.80;99.90
53880;DHT22;39791;53.184;5.486;2023-07-29T07:02:46;23.80;99.90
53880;DHT22;39791;53.184;5.486;2023-07-29T07:05:11;22.70;99.90
53880;DHT22;39791;53.184;5.486;2023-07-29T07:07:37;22.10;99.90
53880;DHT22;39791;53.184;5.486;2023-07-29T07:10:03;21.20;99.90
53880;DHT22;39791;53.184;5.486;2023-07-29T07:12:29;21.90;99.90
53880;DHT22;39791;53.184;5.486;2023-07-29T07:14:54;22.40;99.90
53880;DHT22;39791;53.184;5.486;2023-07-29T07:17:20;22.30;99.90
53880;DHT22;39791;53.184;5.486;2023-07-29T07:19:45;21.40;99.90
53880;DHT22;39791;53.184;5.486;2023-07-29T07:22:11;21.70;99.90
53880;DHT22;39791;53.184;5.486;2023-07-29T07:24:37;21.70;99.90
53880;DHT22;39791;53.184;5.486;2023-07-29T07:27:03;21.80;99.90
53880;DHT22;39791;53.184;5.486;2023-07-29T07:29:28;21.90;99.90
53880;DHT22;39791;53.184;5.486;2023-07-29T07:31:56;21.60;99.90
53880;DHT22;39791;53.184;5.486;2023-07-29T07:34:22;21.70;99.90
53880;DHT22;39791;53.184;5.486;2023-07-29T07:36:49;22.20;99.90
53880;DHT22;39791;53.184;5.486;2023-07-29T07:39:15;22.10;99.90
53880;DHT22;39791;53.184;5.486;2023-07-29T07:41:41;22.20;99.90
53880;DHT22;39791;53.184;5.486;2023-07-29T07:44:07;21.70;99.90
53880;DHT22;39791;53.184;5.486;2023-07-29T07:46:32;22.00;99.90
53880;DHT22;39791;53.184;5.486;2023-07-29T07:48:58;22.30;99.90
53880;DHT22;39791;53.184;5.486;2023-07-29T07:51:24;22.70;99.90
53880;DHT22;39791;53.184;5.486;2023-07-29T07:53:50;22.90;99.90
53880;DHT22;39791;53.184;5.486;2023-07-29T07:56:15;22.80;99.90
53880;DHT22;39791;53.184;5.486;2023-07-29T07:58:41;22.80;99.90
53880;DHT22;39791;53.184;5.486;2023-07-29T08:01:08;22.80;99.90
53880;DHT22;39791;53.184;5.486;2023-07-29T08:03:35;22.50;99.90
53880;DHT22;39791;53.184;5.486;2023-07-29T08:06:00;22.30;99.90
53880;DHT22;39791;53.184;5.486;2023-07-29T08:08:27;22.50;99.90
53880;DHT22;39791;53.184;5.486;2023-07-29T08:10:54;22.80;99.90
53880;DHT22;39791;53.184;5.486;2023-07-29T08:13:20;24.10;98.00
53880;DHT22;39791;53.184;5.486;2023-07-29T08:15:52;23.70;99.90
53880;DHT22;39791;53.184;5.486;2023-07-29T08:18:18;23.70;99.90
53880;DHT22;39791;53.184;5.486;2023-07-29T08:20:58;25.30;99.90
53880;DHT22;39791;53.184;5.486;2023-07-29T08:23:25;23.50;99.90
53880;DHT22;39791;53.184;5.486;2023-07-29T08:25:55;23.40;1.00
53880;DHT22;39791;53.184;5.486;2023-07-29T08:28:23;24.10;99.90
53880;DHT22;39791;53.184;5.486;2023-07-29T08:30:49;23.50;99.90
53880;DHT22;39791;53.184;5.486;2023-07-29T08:33:15;23.20;99.90
53880;DHT22;39791;53.184;5.486;2023-07-29T08:35:40;23.20;3.70
53880;DHT22;39791;53.184;5.486;2023-07-29T08:38:06;23.70;1.00
53880;DHT22;39791;53.184;5.486;2023-07-29T08:40:32;22.70;13.30
53880;DHT22;39791;53.184;5.486;2023-07-29T08:43:04;22.50;79.70
53880;DHT22;39791;53.184;5.486;2023-07-29T08:45:33;23.70;73.30
53880;DHT22;39791;53.184;5.486;2023-07-29T08:48:02;22.60;97.60
53880;DHT22;39791;53.184;5.486;2023-07-29T08:50:32;22.90;88.00
53880;DHT22;39791;53.184;5.486;2023-07-29T08:52:59;22.80;1.00
53880;DHT22;39791;53.184;5.486;2023-07-29T08:55:26;23.80;1.00
53880;DHT22;39791;53.184;5.486;2023-07-29T08:57:52;23.00;1.00
53880;DHT22;39791;53.184;5.486;2023-07-29T09:00:19;23.30;99.90
53880;DHT22;39791;53.184;5.486;2023-07-29T09:02:45;24.20;99.90
53880;DHT22;39791;53.184;5.486;2023-07-29T09:05:10;23.40;99.90
53880;DHT22;39791;53.184;5.486;2023-07-29T09:07:36;22.70;99.90
53880;DHT22;39791;53.184;5.486;2023-07-29T09:10:02;22.80;99.90
53880;DHT22;39791;53.184;5.486;2023-07-29T09:12:28;22.70;1.00
53880;DHT22;39791;53.184;5.486;2023-07-29T09:14:53;23.30;1.00
53880;DHT22;39791;53.184;5.486;2023-07-29T09:17:20;23.00;99.90
53880;DHT22;39791;53.184;5.486;2023-07-29T09:19:50;23.50;99.90
53880;DHT22;39791;53.184;5.486;2023-07-29T09:22:20;22.80;53.20
53880;DHT22;39791;53.184;5.486;2023-07-29T09:24:46;24.00;22.10
53880;DHT22;39791;53.184;5.486;2023-07-29T09:27:25;23.30;1.00
53880;DHT22;39791;53.184;5.486;2023-07-29T09:29:52;23.30;1.00
53880;DHT22;39791;53.184;5.486;2023-07-29T09:32:22;23.60;99.90
53880;DHT22;39791;53.184;5.486;2023-07-29T09:34:48;23.60;1.00
53880;DHT22;39791;53.184;5.486;2023-07-29T09:37:18;23.40;99.90
53880;DHT22;39791;53.184;5.486;2023-07-29T09:39:46;23.80;99.90
53880;DHT22;39791;53.184;5.486;2023-07-29T09:42:17;23.90;99.90
53880;DHT22;39791;53.184;5.486;2023-07-29T09:44:43;23.70;50.00
53880;DHT22;39791;53.184;5.486;2023-07-29T09:47:09;23.60;1.00
53880;DHT22;39791;53.184;5.486;2023-07-29T09:49:35;23.60;26.70
53880;DHT22;39791;53.184;5.486;2023-07-29T09:52:04;23.70;1.00
53880;DHT22;39791;53.184;5.486;2023-07-29T09:54:30;23.40;1.00
53880;DHT22;39791;53.184;5.486;2023-07-29T09:56:56;23.40;1.00
53880;DHT22;39791;53.184;5.486;2023-07-29T09:59:23;23.10;99.90
53880;DHT22;39791;53.184;5.486;2023-07-29T10:01:49;22.90;99.90
53880;DHT22;39791;53.184;5.486;2023-07-29T10:04:16;22.90;99.90
53880;DHT22;39791;53.184;5.486;2023-07-29T10:06:42;22.90;99.90
53880;DHT22;39791;53.184;5.486;2023-07-29T10:09:11;23.10;99.90
53880;DHT22;39791;53.184;5.486;2023-07-29T10:11:37;23.20;99.90
53880;DHT22;39791;53.184;5.486;2023-07-29T10:14:04;23.40;99.90
53880;DHT22;39791;53.184;5.486;2023-07-29T10:16:29;23.20;99.90
53880;DHT22;39791;53.184;5.486;2023-07-29T10:18:56;23.20;99.90
53880;DHT22;39791;53.184;5.486;2023-07-29T10:21:22;23.10;99.90
53880;DHT22;39791;53.184;5.486;2023-07-29T10:23:49;22.90;99.90
53880;DHT22;39791;53.184;5.486;2023-07-29T10:26:19;22.50;1.00
53880;DHT22;39791;53.184;5.486;2023-07-29T10:28:47;22.60;99.90
53880;DHT22;39791;53.184;5.486;2023-07-29T10:31:15;22.80;99.90
53880;DHT22;39791;53.184;5.486;2023-07-29T10:33:42;23.10;99.90
53880;DHT22;39791;53.184;5.486;2023-07-29T10:36:08;23.80;99.90
53880;DHT22;39791;53.184;5.486;2023-07-29T10:38:34;22.90;99.90
53880;DHT22;39791;53.184;5.486;2023-07-29T10:41:00;22.30;50.00
53880;DHT22;39791;53.184;5.486;2023-07-29T10:43:34;23.40;1.00
53880;DHT22;39791;53.184;5.486;2023-07-29T10:53:47;22.20;1.00
53880;DHT22;39791;53.184;5.486;2023-07-29T10:56:13;22.30;99.90
53880;DHT22;39791;53.184;5.486;2023-07-29T10:58:49;22.90;99.90
53880;DHT22;39791;53.184;5.486;2023-07-29T11:01:26;23.50;62.80
53880;DHT22;39791;53.184;5.486;2023-07-29T11:12:51;23.10;99.90
53880;DHT22;39791;53.184;5.486;2023-07-29T11:15:26;23.20;99.90
53880;DHT22;39791;53.184;5.486;2023-07-29T11:17:53;23.40;99.90
53880;DHT22;39791;53.184;5.486;2023-07-29T11:22:49;23.50;1.00
53880;DHT22;39791;53.184;5.486;2023-07-29T11:25:18;23.70;1.00
53880;DHT22;39791;53.184;5.486;2023-07-29T11:27:44;23.70;99.90
53880;DHT22;39791;53.184;5.486;2023-07-29T11:30:11;23.50;99.90
53880;DHT22;39791;53.184;5.486;2023-07-29T11:32:39;23.50;99.90
53880;DHT22;39791;53.184;5.486;2023-07-29T11:35:06;23.50;99.90
53880;DHT22;39791;53.184;5.486;2023-07-29T11:37:33;23.50;99.90
53880;DHT22;39791;53.184;5.486;2023-07-29T11:39:59;23.40;99.90
53880;DHT22;39791;53.184;5.486;2023-07-29T11:42:26;23.70;1.00
53880;DHT22;39791;53.184;5.486;2023-07-29T11:44:52;23.70;99.90
53880;DHT22;39791;53.184;5.486;2023-07-29T11:47:17;23.50;1.00
53880;DHT22;39791;53.184;5.486;2023-07-29T11:49:43;23.50;1.00
53880;DHT22;39791;53.184;5.486;2023-07-29T11:52:10;23.70;1.00
53880;DHT22;39791;53.184;5.486;2023-07-29T11:54:38;24.30;1.00
53880;DHT22;39791;53.184;5.486;2023-07-29T11:57:08;23.70;99.90
53880;DHT22;39791;53.184;5.486;2023-07-29T11:59:35;23.50;99.90
53880;DHT22;39791;53.184;5.486;2023-07-29T12:02:02;23.50;99.90
53880;DHT22;39791;53.184;5.486;2023-07-29T12:04:30;23.40;99.90
53880;DHT22;39791;53.184;5.486;2023-07-29T12:06:57;23.40;99.90
53880;DHT22;39791;53.184;5.486;2023-07-29T12:09:23;23.30;99.90
53880;DHT22;39791;53.184;5.486;2023-07-29T12:11:49;23.30;99.90
53880;DHT22;39791;53.184;5.486;2023-07-29T12:14:16;23.90;99.90
53880;DHT22;39791;53.184;5.486;2023-07-29T12:16:48;24.70;99.90
53880;DHT22;39791;53.184;5.486;2023-07-29T12:19:14;23.10;99.90
53880;DHT22;39791;53.184;5.486;2023-07-29T12:21:41;23.10;99.90
53880;DHT22;39791;53.184;5.486;2023-07-29T12:24:07;23.50;99.90
53880;DHT22;39791;53.184;5.486;2023-07-29T12:26:33;23.10;99.90
53880;DHT22;39791;53.184;5.486;2023-07-29T12:29:11;23.20;99.90
53880;DHT22;39791;53.184;5.486;2023-07-29T12:31:38;23.30;99.90
53880;DHT22;39791;53.184;5.486;2023-07-29T12:34:03;23.30;99.90
53880;DHT22;39791;53.184;5.486;2023-07-29T12:39:16;23.30;99.90
53880;DHT22;39791;53.184;5.486;2023-07-29T12:41:42;23.40;99.90
53880;DHT22;39791;53.184;5.486;2023-07-29T12:44:08;23.30;99.90
53880;DHT22;39791;53.184;5.486;2023-07-29T12:46:34;23.80;99.90
53880;DHT22;39791;53.184;5.486;2023-07-29T12:48:59;23.40;99.90
53880;DHT22;39791;53.184;5.486;2023-07-29T12:51:25;23.70;70.60
53880;DHT22;39791;53.184;5.486;2023-07-29T12:53:50;23.60;8.00
53880;DHT22;39791;53.184;5.486;2023-07-29T12:56:16;23.70;16.10
53880;DHT22;39791;53.184;5.486;2023-07-29T12:58:41;23.60;14.00
53880;DHT22;39791;53.184;5.486;2023-07-29T13:01:07;23.90;91.30
53880;DHT22;39791;53.184;5.486;2023-07-29T13:03:33;23.80;99.90
53880;DHT22;39791;53.184;5.486;2023-07-29T13:05:58;23.80;99.90
53880;DHT22;39791;53.184;5.486;2023-07-29T13:08:24;23.90;99.90
53880;DHT22;39791;53.184;5.486;2023-07-29T13:10:49;23.90;99.90
53880;DHT22;39791;53.184;5.486;2023-07-29T13:13:15;24.00;99.90
53880;DHT22;39791;53.184;5.486;2023-07-29T13:15:40;24.00;99.90
53880;DHT22;39791;53.184;5.486;2023-07-29T13:18:06;23.90;99.90
53880;DHT22;39791;53.184;5.486;2023-07-29T13:20:31;23.70;99.90
53880;DHT22;39791;53.184;5.486;2023-07-29T13:22:59;23.80;74.90
53880;DHT22;39791;53.184;5.486;2023-07-29T13:25:24;23.70;54.20
53880;DHT22;39791;53.184;5.486;2023-07-29T13:27:50;23.90;83.50
53880;DHT22;39791;53.184;5.486;2023-07-29T13:30:15;23.70;78.10
53880;DHT22;39791;53.184;5.486;2023-07-29T13:32:41;23.90;67.80
53880;DHT22;39791;53.184;5.486;2023-07-29T13:35:07;23.80;34.40
53880;DHT22;39791;53.184;5.486;2023-07-29T13:37:32;23.80;21.90
53880;DHT22;39791;53.184;5.486;2023-07-29T13:39:58;23.80;26.10
53880;DHT22;39791;53.184;5.486;2023-07-29T13:42:23;23.90;30.00
53880;DHT22;39791;53.184;5.486;2023-07-29T13:44:49;23.80;1.00
53880;DHT22;39791;53.184;5.486;2023-07-29T13:47:15;23.90;3.80
53880;DHT22;39791;53.184;5.486;2023-07-29T13:49:40;23.80;1.00
53880;DHT22;39791;53.184;5.486;2023-07-29T13:52:06;23.80;1.00
53880;DHT22;39791;53.184;5.486;2023-07-29T13:54:31;23.80;1.00
53880;DHT22;39791;53.184;5.486;2023-07-29T13:56:57;23.90;1.00
53880;DHT22;39791;53.184;5.486;2023-07-29T13:59:23;23.80;1.00
53880;DHT22;39791;53.184;5.486;2023-07-29T14:01:49;23.80;1.00
53880;DHT22;39791;53.184;5.486;2023-07-29T14:04:14;23.70;1.00
53880;DHT22;39791;53.184;5.486;2023-07-29T14:06:40;23.70;1.00
53880;DHT22;39791;53.184;5.486;2023-07-29T14:09:05;23.80;1.00
53880;DHT22;39791;53.184;5.486;2023-07-29T14:11:31;23.60;1.00
53880;DHT22;39791;53.184;5.486;2023-07-29T14:13:56;24.10;1.00
53880;DHT22;39791;53.184;5.486;2023-07-29T14:16:22;23.60;1.00
53880;DHT22;39791;53.184;5.486;2023-07-29T14:18:48;23.60;1.00
53880;DHT22;39791;53.184;5.486;2023-07-29T14:21:13;23.70;1.00
53880;DHT22;39791;53.184;5.486;2023-07-29T14:23:39;23.50;1.00
53880;DHT22;39791;53.184;5.486;2023-07-29T14:26:04;23.50;1.00
53880;DHT22;39791;53.184;5.486;2023-07-29T14:28:30;23.50;1.00
53880;DHT22;39791;53.184;5.486;2023-07-29T14:30:56;23.50;1.00
53880;DHT22;39791;53.184;5.486;2023-07-29T14:33:21;23.60;1.00
53880;DHT22;39791;53.184;5.486;2023-07-29T14:35:47;23.50;1.00
53880;DHT22;39791;53.184;5.486;2023-07-29T14:38:12;23.40;1.00
53880;DHT22;39791;53.184;5.486;2023-07-29T14:40:38;23.40;1.00
53880;DHT22;39791;53.184;5.486;2023-07-29T14:43:03;24.20;1.00
53880;DHT22;39791;53.184;5.486;2023-07-29T14:45:29;23.30;1.00
53880;DHT22;39791;53.184;5.486;2023-07-29T14:47:54;23.30;1.00
53880;DHT22;39791;53.184;5.486;2023-07-29T14:50:20;23.30;1.00
53880;DHT22;39791;53.184;5.486;2023-07-29T14:52:46;23.10;1.00
53880;DHT22;39791;53.184;5.486;2023-07-29T14:55:11;23.00;1.00
53880;DHT22;39791;53.184;5.486;2023-07-29T14:57:37;23.20;1.00
53880;DHT22;39791;53.184;5.486;2023-07-29T15:00:03;23.20;1.00
53880;DHT22;39791;53.184;5.486;2023-07-29T15:02:29;23.20;1.00
53880;DHT22;39791;53.184;5.486;2023-07-29T15:04:55;23.20;1.00
53880;DHT22;39791;53.184;5.486;2023-07-29T15:07:20;23.20;1.00
53880;DHT22;39791;53.184;5.486;2023-07-29T15:09:46;23.10;10.80
53880;DHT22;39791;53.184;5.486;2023-07-29T15:12:11;23.20;8.30
53880;DHT22;39791;53.184;5.486;2023-07-29T15:14:37;23.30;23.80
53880;DHT22;39791;53.184;5.486;2023-07-29T15:17:03;23.30;12.90
53880;DHT22;39791;53.184;5.486;2023-07-29T15:19:28;23.40;1.00
53880;DHT22;39791;53.184;5.486;2023-07-29T15:21:54;23.40;1.00
53880;DHT22;39791;53.184;5.486;2023-07-29T15:24:19;23.40;4.30
53880;DHT22;39791;53.184;5.486;2023-07-29T15:26:45;23.40;1.00
53880;DHT22;39791;53.184;5.486;2023-07-29T15:29:10;23.50;1.00
53880;DHT22;39791;53.184;5.486;2023-07-29T15:31:36;23.20;1.00
53880;DHT22;39791;53.184;5.486;2023-07-29T15:34:02;23.20;1.00
53880;DHT22;39791;53.184;5.486;2023-07-29T15:36:27;23.10;14.60
53880;DHT22;39791;53.184;5.486;2023-07-29T15:38:53;23.00;28.30
53880;DHT22;39791;53.184;5.486;2023-07-29T15:41:18;23.10;28.70
53880;DHT22;39791;53.184;5.486;2023-07-29T15:43:44;22.90;21.40
53880;DHT22;39791;53.184;5.486;2023-07-29T15:46:10;22.80;25.10
53880;DHT22;39791;53.184;5.486;2023-07-29T15:48:35;22.70;38.90
53880;DHT22;39791;53.184;5.486;2023-07-29T15:51:01;22.80;54.00